Time;durP1;ratioP1;P1;durP2;ratioP2;P2;SDS_P1;SDS_P2;PMS_P1;PMS_P2;Temp;Humidity;BMP_temperature;BMP_pressure;BME280_temperature;BME280_humidity;BME280_pressure;Samples;Min_cycle;Max_cycle;Signal;HPM_P1;HPM_P2
2022/01/04 00:01:35;;;;;;;11.63;2.85;;;13.40;70.70;;;;;;6158178;23;20441;-75
2022/01/04 00:04:01;;;;;;;14.68;2.92;;;13.40;70.70;;;;;;6159284;23;20014;-75
2022/01/04 00:06:26;;;;;;;10.93;2.25;;;13.40;70.70;;;;;;6159628;23;20036;-75
2022/01/04 00:08:58;;;;;;;8.05;3.08;;;13.40;70.90;;;;;;6159350;23;20032;-75
2022/01/04 00:11:41;;;;;;;10.15;2.50;;;13.40;70.90;;;;;;6159178;23;20025;-76
2022/01/04 00:14:07;;;;;;;12.10;2.88;;;13.40;70.90;;;;;;6159474;23;20489;-76
2022/01/04 00:16:33;;;;;;;11.82;2.90;;;13.40;71.10;;;;;;6158922;23;20096;-74
2022/01/04 00:18:59;;;;;;;8.30;2.45;;;13.40;70.90;;;;;;6160387;23;20312;-74
2022/01/04 00:21:24;;;;;;;11.27;3.03;;;13.40;71.00;;;;;;6159619;23;20025;-76
2022/01/04 00:23:50;;;;;;;11.07;3.25;;;13.40;70.90;;;;;;6159537;23;20032;-74
2022/01/04 00:26:16;;;;;;;14.07;2.42;;;13.40;71.10;;;;;;6159383;23;20308;-74
2022/01/04 00:28:41;;;;;;;12.13;2.38;;;13.40;71.20;;;;;;6159137;23;20056;-75
2022/01/04 00:31:07;;;;;;;9.43;2.40;;;13.40;71.00;;;;;;6159806;23;20044;-75
2022/01/04 00:33:33;;;;;;;11.98;2.97;;;13.40;71.10;;;;;;6158871;23;20026;-74
2022/01/04 00:35:58;;;;;;;11.75;2.63;;;13.40;71.10;;;;;;6158753;23;20033;-75
2022/01/04 00:38:24;;;;;;;12.40;2.65;;;13.40;71.20;;;;;;6159148;23;20029;-76
2022/01/04 00:40:50;;;;;;;9.05;2.47;;;13.40;71.20;;;;;;6158630;23;20033;-76
2022/01/04 00:43:15;;;;;;;10.85;2.92;;;13.50;71.30;;;;;;6159313;23;20021;-76
2022/01/04 00:45:41;;;;;;;10.75;2.90;;;13.40;71.20;;;;;;6158835;23;20296;-75
2022/01/04 00:50:36;;;;;;;12.10;2.60;;;13.40;71.20;;;;;;6159451;23;20115;-75
2022/01/04 00:53:03;;;;;;;10.57;3.13;;;13.40;71.30;;;;;;6157981;23;20068;-77
2022/01/04 00:55:29;;;;;;;12.60;2.55;;;13.40;71.30;;;;;;6159637;23;20088;-76
2022/01/04 00:57:55;;;;;;;9.50;2.45;;;13.40;71.20;;;;;;6159668;23;20021;-74
2022/01/04 01:00:21;;;;;;;9.07;2.63;;;13.40;71.40;;;;;;6157362;23;20430;-75
2022/01/04 01:02:48;;;;;;;11.43;2.90;;;13.40;71.20;;;;;;6158697;23;20017;-75
2022/01/04 01:05:15;;;;;;;7.85;2.35;;;13.40;71.40;;;;;;6158867;23;20100;-77
2022/01/04 01:07:41;;;;;;;10.13;2.45;;;13.40;71.70;;;;;;6156958;23;20021;-75
2022/01/04 01:12:41;;;;;;;13.00;3.42;;;13.40;71.80;;;;;;6158566;23;20033;-76
2022/01/04 01:15:08;;;;;;;10.60;2.40;;;13.40;72.10;;;;;;6158835;23;20033;-77
2022/01/04 01:17:34;;;;;;;11.77;2.60;;;13.40;71.70;;;;;;6158964;23;20077;-75
2022/01/04 01:20:00;;;;;;;10.88;2.63;;;13.30;71.60;;;;;;6158379;23;20053;-75
2022/01/04 01:22:26;;;;;;;12.90;2.90;;;13.30;71.80;;;;;;6159393;23;20052;-75
2022/01/04 01:24:52;;;;;;;13.15;3.00;;;13.30;71.70;;;;;;6157766;23;20018;-75
2022/01/04 01:27:18;;;;;;;11.30;2.92;;;13.30;71.70;;;;;;6159224;23;20293;-75
2022/01/04 01:29:44;;;;;;;11.63;2.90;;;13.30;71.90;;;;;;6132570;23;20033;-75
2022/01/04 01:32:10;;;;;;;8.50;2.33;;;13.30;71.90;;;;;;6158891;23;20029;-75
2022/01/04 01:34:38;;;;;;;10.30;2.40;;;13.30;71.90;;;;;;6158386;23;20029;-76
2022/01/04 01:37:04;;;;;;;10.45;3.13;;;13.30;71.90;;;;;;6158735;23;20017;-74
2022/01/04 01:39:30;;;;;;;11.80;2.72;;;13.30;72.00;;;;;;6158527;23;20083;-75
2022/01/04 01:41:55;;;;;;;11.00;2.83;;;13.20;71.90;;;;;;6158535;23;20013;-75
2022/01/04 01:44:21;;;;;;;9.98;2.67;;;13.20;72.20;;;;;;6157845;23;20022;-75
2022/01/04 01:46:48;;;;;;;8.70;2.10;;;13.20;72.20;;;;;;6159049;23;20025;-75
2022/01/04 01:49:14;;;;;;;9.07;2.45;;;13.20;72.30;;;;;;6157959;23;20025;-75
2022/01/04 01:51:40;;;;;;;14.10;3.08;;;13.30;72.30;;;;;;6158484;23;20071;-75
2022/01/04 01:54:05;;;;;;;12.00;2.67;;;13.30;72.30;;;;;;6156944;23;20387;-76
2022/01/04 01:56:32;;;;;;;14.13;3.30;;;13.30;72.10;;;;;;6158895;23;20018;-74
2022/01/04 01:58:58;;;;;;;7.00;2.08;;;13.30;72.10;;;;;;6159337;23;20115;-74
2022/01/04 02:01:23;;;;;;;9.60;2.35;;;13.30;72.40;;;;;;6157053;23;20036;-76
2022/01/04 02:03:49;;;;;;;11.45;3.05;;;13.30;72.40;;;;;;6158263;23;20053;-75
2022/01/04 02:06:15;;;;;;;15.15;3.53;;;13.30;72.40;;;;;;6157756;23;20021;-75
2022/01/04 02:08:41;;;;;;;10.73;2.47;;;13.30;72.20;;;;;;6158486;23;20345;-74
2022/01/04 02:11:08;;;;;;;13.38;3.25;;;13.30;72.40;;;;;;6157936;23;20490;-75
2022/01/04 02:13:34;;;;;;;11.68;3.17;;;13.30;72.30;;;;;;6158111;23;20296;-74
2022/01/04 02:15:59;;;;;;;12.18;2.97;;;13.30;72.50;;;;;;6158297;23;20066;-75
2022/01/04 02:18:25;;;;;;;17.15;3.03;;;13.30;72.30;;;;;;6157614;23;20025;-74
2022/01/04 02:20:51;;;;;;;16.20;3.42;;;13.30;72.40;;;;;;6158501;23;20024;-75
2022/01/04 02:23:17;;;;;;;9.38;2.65;;;13.30;72.40;;;;;;6157934;23;20104;-75
2022/01/04 02:25:43;;;;;;;12.27;2.83;;;13.20;72.40;;;;;;6158241;23;20026;-75
2022/01/04 02:28:09;;;;;;;14.27;2.33;;;13.20;72.30;;;;;;6158039;23;20017;-74
2022/01/04 02:30:34;;;;;;;11.43;2.85;;;13.20;72.20;;;;;;6158419;23;20021;-74
2022/01/04 02:33:00;;;;;;;13.00;2.67;;;13.20;72.30;;;;;;6158120;23;20017;-74
2022/01/04 02:35:30;;;;;;;9.20;2.60;;;13.20;72.30;;;;;;6158026;23;20014;-75
2022/01/04 02:37:57;;;;;;;11.27;2.40;;;13.20;72.40;;;;;;6159320;23;20076;-74
2022/01/04 02:40:24;;;;;;;12.07;3.17;;;13.20;72.10;;;;;;6158095;23;20025;-75
2022/01/04 02:42:51;;;;;;;9.82;2.90;;;13.20;72.30;;;;;;6158203;23;20018;-75
2022/01/04 02:45:16;;;;;;;11.18;3.28;;;13.20;72.40;;;;;;6157832;23;20014;-75
2022/01/04 02:47:42;;;;;;;14.18;3.30;;;13.20;72.40;;;;;;6157914;23;20390;-75
2022/01/04 02:50:10;;;;;;;13.88;3.15;;;13.30;72.40;;;;;;6158237;23;20022;-75
2022/01/04 02:52:36;;;;;;;12.80;3.20;;;13.20;72.30;;;;;;6158052;23;20028;-74
2022/01/04 02:55:07;;;;;;;8.80;2.80;;;13.20;72.20;;;;;;6159055;23;20017;-76
2022/01/04 02:57:33;;;;;;;15.88;4.28;;;13.20;72.40;;;;;;6157682;23;20175;-77
2022/01/04 03:00:00;;;;;;;16.00;3.22;;;13.20;72.50;;;;;;6159315;23;20332;-74
2022/01/04 03:02:26;;;;;;;17.23;4.00;;;13.10;72.60;;;;;;6156599;23;20080;-75
2022/01/04 03:04:52;;;;;;;16.50;3.75;;;13.20;72.70;;;;;;6158836;23;20100;-75
2022/01/04 03:07:17;;;;;;;10.88;2.83;;;13.10;72.70;;;;;;6157582;23;20013;-74
2022/01/04 03:09:43;;;;;;;15.23;3.83;;;13.10;72.80;;;;;;6157837;23;20078;-75
2022/01/04 03:12:09;;;;;;;13.07;3.03;;;13.10;72.80;;;;;;6158049;23;20018;-75
2022/01/04 03:14:35;;;;;;;11.52;3.42;;;13.10;72.80;;;;;;6158188;23;20021;-76
2022/01/04 03:17:03;;;;;;;11.18;3.15;;;13.10;72.70;;;;;;6157969;23;20299;-75
2022/01/04 03:19:29;;;;;;;10.95;2.88;;;13.10;72.70;;;;;;6157840;23;20452;-75
2022/01/04 03:21:55;;;;;;;14.57;3.78;;;13.10;72.70;;;;;;6157831;23;20152;-75
2022/01/04 03:24:21;;;;;;;12.88;3.00;;;13.10;72.90;;;;;;6158253;23;20396;-74
2022/01/04 03:26:47;;;;;;;14.55;3.78;;;13.10;72.60;;;;;;6157708;23;20021;-75
2022/01/04 03:29:14;;;;;;;11.65;3.05;;;13.10;72.60;;;;;;6158056;23;20281;-75
2022/01/04 03:31:41;;;;;;;10.60;3.20;;;13.10;72.70;;;;;;6158893;23;20100;-75
2022/01/04 03:34:07;;;;;;;13.77;4.03;;;13.10;72.90;;;;;;6160793;23;20064;-74
2022/01/04 03:36:33;;;;;;;16.52;3.42;;;13.10;72.80;;;;;;6160333;23;20052;-75
2022/01/04 03:38:59;;;;;;;14.25;3.47;;;13.20;72.80;;;;;;6158735;23;20032;-75
2022/01/04 03:41:26;;;;;;;16.45;3.70;;;13.20;72.80;;;;;;6159463;23;20447;-75
2022/01/04 03:43:53;;;;;;;12.38;2.90;;;13.20;72.80;;;;;;6159569;23;20029;-75
2022/01/04 03:46:19;;;;;;;11.95;3.22;;;13.20;72.60;;;;;;6159456;23;20028;-75
2022/01/04 03:48:45;;;;;;;11.88;3.08;;;13.20;72.60;;;;;;6159959;23;20403;-75
2022/01/04 03:51:11;;;;;;;21.40;4.75;;;13.20;72.40;;;;;;6159513;23;20100;-74
2022/01/04 03:53:37;;;;;;;11.27;3.28;;;13.20;72.60;;;;;;6160217;23;20039;-74
2022/01/04 03:56:04;;;;;;;10.00;3.53;;;13.10;72.80;;;;;;6159714;23;20088;-76
2022/01/04 03:58:30;;;;;;;13.63;2.88;;;13.10;72.80;;;;;;6159862;23;20021;-75
2022/01/04 04:00:56;;;;;;;15.25;3.40;;;13.20;73.00;;;;;;6159095;23;20023;-75
2022/01/04 04:03:21;;;;;;;15.02;3.00;;;13.20;72.80;;;;;;6159345;23;20052;-75
2022/01/04 04:05:49;;;;;;;15.07;3.38;;;13.10;72.80;;;;;;6160009;23;20119;-74
2022/01/04 04:08:15;;;;;;;12.93;3.22;;;13.10;72.60;;;;;;6159838;23;20026;-76
2022/01/04 04:10:41;;;;;;;14.43;3.40;;;13.20;72.90;;;;;;6159779;23;20010;-75
2022/01/04 04:13:06;;;;;;;14.88;4.07;;;13.10;72.80;;;;;;6159367;23;20434;-75
2022/01/04 04:15:32;;;;;;;12.55;2.80;;;13.10;72.70;;;;;;6159012;23;20028;-76
2022/01/04 04:17:58;;;;;;;15.88;3.58;;;13.10;72.80;;;;;;6159392;23;20407;-75
2022/01/04 04:20:24;;;;;;;17.80;4.05;;;13.10;72.70;;;;;;6159245;23;20017;-75
2022/01/04 04:22:50;;;;;;;14.35;3.08;;;13.10;72.90;;;;;;6159505;23;20017;-75
2022/01/04 04:25:15;;;;;;;11.95;3.03;;;13.10;72.70;;;;;;6159427;23;20044;-75
2022/01/04 04:27:41;;;;;;;13.63;3.05;;;13.10;72.70;;;;;;6159259;23;20124;-75
2022/01/04 04:30:08;;;;;;;12.10;3.60;;;13.10;72.80;;;;;;6159904;23;20392;-74
2022/01/04 04:32:34;;;;;;;11.48;2.88;;;13.10;72.90;;;;;;6158745;23;20024;-77
2022/01/04 04:35:00;;;;;;;14.82;3.05;;;13.10;72.70;;;;;;6158412;23;20029;-75
2022/01/04 04:37:26;;;;;;;11.35;2.83;;;13.10;72.90;;;;;;6157753;23;20374;-75
2022/01/04 04:39:52;;;;;;;12.50;2.97;;;13.10;72.90;;;;;;6159230;23;20021;-74
2022/01/04 04:42:18;;;;;;;15.10;2.88;;;13.00;72.90;;;;;;6158936;23;20295;-77
2022/01/04 04:44:45;;;;;;;11.15;2.75;;;13.10;72.90;;;;;;6159186;23;20040;-75
2022/01/04 04:47:11;;;;;;;11.73;2.55;;;13.10;73.10;;;;;;6159600;23;20022;-75
2022/01/04 04:49:37;;;;;;;14.93;3.33;;;13.00;72.90;;;;;;6159525;23;20084;-74
2022/01/04 04:52:03;;;;;;;15.73;3.03;;;13.00;72.80;;;;;;6158341;23;20037;-76
2022/01/04 04:54:29;;;;;;;19.60;3.85;;;13.10;72.90;;;;;;6159280;23;20061;-75
2022/01/04 04:56:54;;;;;;;12.13;3.55;;;13.10;72.90;;;;;;6159116;23;20045;-77
2022/01/04 04:59:20;;;;;;;11.57;2.78;;;13.10;72.80;;;;;;6158572;23;20324;-76
2022/01/04 05:01:46;;;;;;;14.43;3.33;;;13.10;72.70;;;;;;6158845;23;20123;-75
2022/01/04 05:04:12;;;;;;;13.98;3.25;;;13.10;72.70;;;;;;6158550;23;20021;-74
2022/01/04 05:06:37;;;;;;;8.10;2.42;;;13.20;72.70;;;;;;6159773;23;20482;-76
2022/01/04 05:09:03;;;;;;;11.15;2.90;;;13.20;72.80;;;;;;6158912;23;20065;-75
2022/01/04 05:11:29;;;;;;;14.13;3.30;;;13.30;72.90;;;;;;6159233;23;20070;-76
2022/01/04 05:13:55;;;;;;;12.65;3.15;;;13.50;72.50;;;;;;6156420;23;20021;-74
2022/01/04 05:16:21;;;;;;;13.60;3.33;;;13.60;71.80;;;;;;6158380;23;20438;-70
2022/01/04 05:18:47;;;;;;;20.55;3.47;;;13.70;71.10;;;;;;6158495;23;20356;-80
2022/01/04 05:21:13;;;;;;;13.55;3.28;;;13.70;70.60;;;;;;6158407;23;20031;-74
2022/01/04 05:23:38;;;;;;;12.60;3.08;;;13.80;70.20;;;;;;6157305;23;20045;-77
2022/01/04 05:26:04;;;;;;;20.02;4.00;;;13.80;69.80;;;;;;6157247;23;20057;-76
2022/01/04 05:28:30;;;;;;;12.85;3.58;;;13.90;69.50;;;;;;6157127;23;20017;-76
2022/01/04 05:30:55;;;;;;;14.75;3.20;;;13.90;69.40;;;;;;6158480;23;20289;-74
2022/01/04 05:33:21;;;;;;;14.43;3.22;;;13.90;69.60;;;;;;6156949;23;20018;-77
2022/01/04 05:35:48;;;;;;;14.00;2.65;;;13.90;69.90;;;;;;6156832;23;20025;-76
2022/01/04 05:38:15;;;;;;;10.07;2.35;;;14.10;69.50;;;;;;6157823;23;20441;-74
2022/01/04 05:40:40;;;;;;;16.15;2.97;;;14.20;69.10;;;;;;6158321;23;20013;-74
2022/01/04 05:43:06;;;;;;;14.38;2.28;;;14.50;68.90;;;;;;6158434;23;20021;-73
2022/01/04 05:45:32;;;;;;;11.32;2.90;;;14.80;68.70;;;;;;6158303;23;20020;-73
2022/01/04 05:47:58;;;;;;;15.77;3.33;;;15.10;68.40;;;;;;6158707;23;20032;-80
2022/01/04 05:50:24;;;;;;;12.75;3.00;;;15.30;68.30;;;;;;6158384;23;20029;-75
2022/01/04 05:52:49;;;;;;;11.15;2.78;;;15.50;68.10;;;;;;6157954;23;20033;-76
2022/01/04 05:55:15;;;;;;;11.55;2.67;;;15.70;67.80;;;;;;6158869;23;20037;-74
2022/01/04 05:57:41;;;;;;;11.50;3.22;;;15.80;68.00;;;;;;6158800;23;20114;-74
2022/01/04 06:00:08;;;;;;;19.95;3.53;;;15.80;67.90;;;;;;6156961;23;20021;-75
2022/01/04 06:02:34;;;;;;;12.32;2.70;;;15.80;66.00;;;;;;6156938;23;20374;-75
2022/01/04 06:05:00;;;;;;;13.90;2.55;;;15.80;68.40;;;;;;6157137;23;20057;-73
2022/01/04 06:07:26;;;;;;;11.45;2.63;;;15.90;69.00;;;;;;6157412;23;20017;-73
2022/01/04 06:09:53;;;;;;;14.98;2.33;;;15.90;69.30;;;;;;6157429;23;20017;-74
2022/01/04 06:14:57;;;;;;;12.18;3.05;;;15.80;69.90;;;;;;6157840;23;20061;-75
2022/01/04 06:17:30;;;;;;;13.77;2.42;;;15.90;70.30;;;;;;6157955;23;20043;-75
2022/01/04 06:19:58;;;;;;;16.90;3.45;;;15.90;70.20;;;;;;6157491;23;20018;-74
2022/01/04 06:22:25;;;;;;;9.23;2.58;;;16.00;70.20;;;;;;6158488;23;20029;-77
2022/01/04 06:24:51;;;;;;;12.77;2.80;;;16.00;70.50;;;;;;6156705;23;20021;-80
2022/01/04 06:27:17;;;;;;;9.63;2.17;;;16.10;70.80;;;;;;6157453;23;20064;-79
2022/01/04 06:29:43;;;;;;;13.32;2.65;;;16.10;70.80;;;;;;6156675;23;20021;-78
2022/01/04 06:32:10;;;;;;;12.63;2.67;;;16.10;70.90;;;;;;6158079;23;20029;-78
2022/01/04 06:34:37;;;;;;;13.20;2.72;;;16.10;71.10;;;;;;6157707;23;20033;-79
2022/01/04 06:37:05;;;;;;;14.80;2.72;;;16.20;71.20;;;;;;6157108;23;20021;-80
2022/01/04 06:39:31;;;;;;;10.73;2.60;;;16.20;71.10;;;;;;6156210;23;20466;-80
2022/01/04 06:41:57;;;;;;;15.27;2.78;;;16.30;71.00;;;;;;6158123;23;20088;-78
2022/01/04 06:44:23;;;;;;;6.40;1.60;;;16.30;70.80;;;;;;6157920;23;20025;-79
2022/01/04 06:46:49;;;;;;;10.23;2.00;;;16.40;70.60;;;;;;6156217;23;20031;-76
2022/01/04 06:49:16;;;;;;;17.70;2.67;;;16.50;70.30;;;;;;6157824;23;20017;-77
2022/01/04 06:51:43;;;;;;;15.27;2.95;;;16.60;70.10;;;;;;6157930;23;20044;-75
2022/01/04 06:54:10;;;;;;;17.50;3.00;;;16.60;69.90;;;;;;6156483;23;20013;-74
2022/01/04 06:56:39;;;;;;;15.27;2.45;;;16.60;69.80;;;;;;6156906;23;20089;-80
2022/01/04 06:59:06;;;;;;;17.42;2.95;;;16.70;69.40;;;;;;6156829;23;20415;-81
2022/01/04 07:01:33;;;;;;;11.93;2.05;;;16.80;69.50;;;;;;6157715;23;20070;-77
2022/01/04 07:03:59;;;;;;;18.10;3.28;;;16.90;69.50;;;;;;6157564;23;20019;-79
2022/01/04 07:06:25;;;;;;;10.93;2.20;;;16.90;69.40;;;;;;6158560;23;20097;-78
2022/01/04 07:08:51;;;;;;;14.60;2.35;;;16.90;69.10;;;;;;6158398;23;20030;-77
2022/01/04 07:11:16;;;;;;;13.45;2.78;;;16.90;69.20;;;;;;6158974;23;20022;-78
2022/01/04 07:13:42;;;;;;;14.15;2.53;;;16.90;69.20;;;;;;6158793;23;20395;-79
2022/01/04 07:16:08;;;;;;;10.32;2.30;;;16.90;69.00;;;;;;6134240;23;20032;-79
2022/01/04 07:18:37;;;;;;;14.65;2.28;;;17.00;69.00;;;;;;6160372;23;20032;-77
2022/01/04 07:21:03;;;;;;;10.45;2.55;;;17.00;68.90;;;;;;6159334;23;20438;-80
2022/01/04 07:23:29;;;;;;;12.75;2.78;;;16.90;69.10;;;;;;6159476;23;20021;-80
2022/01/04 07:25:55;;;;;;;12.40;3.35;;;16.20;65.10;;;;;;6159425;23;20092;-79
2022/01/04 07:28:22;;;;;;;14.45;2.55;;;15.80;68.00;;;;;;6159371;23;20092;-79
2022/01/04 07:30:48;;;;;;;12.88;3.08;;;15.70;67.10;;;;;;6159094;23;20032;-78
2022/01/04 07:33:14;;;;;;;10.05;2.17;;;15.10;69.40;;;;;;6159976;23;20407;-77
2022/01/04 07:35:44;;;;;;;13.15;3.22;;;15.60;70.90;;;;;;6159641;23;20088;-78
2022/01/04 07:38:11;;;;;;;12.65;2.53;;;15.80;70.70;;;;;;6159750;23;20009;-78
2022/01/04 07:40:37;;;;;;;11.02;2.35;;;16.10;70.00;;;;;;6158149;23;20020;-80
2022/01/04 07:43:03;;;;;;;10.82;2.58;;;16.30;70.00;;;;;;6158250;23;20021;-78
2022/01/04 07:45:33;;;;;;;16.80;2.90;;;16.50;69.60;;;;;;6159485;23;20080;-81
2022/01/04 07:48:00;;;;;;;19.00;3.35;;;16.60;68.70;;;;;;6159093;23;20014;-80
2022/01/04 07:50:27;;;;;;;10.68;2.72;;;16.60;68.00;;;;;;6133537;23;20018;-73
2022/01/04 07:52:53;;;;;;;20.20;3.35;;;16.70;68.00;;;;;;6158625;23;20085;-78
2022/01/04 07:55:19;;;;;;;18.00;3.42;;;16.70;68.30;;;;;;6158649;23;20026;-81
2022/01/04 07:57:45;;;;;;;17.00;2.92;;;16.60;67.80;;;;;;6133474;23;20423;-79
2022/01/04 08:00:15;;;;;;;15.60;3.47;;;16.70;67.80;;;;;;6158058;23;20013;-75
2022/01/04 08:02:42;;;;;;;11.25;3.33;;;16.80;67.80;;;;;;6159205;23;20021;-79
2022/01/04 08:05:11;;;;;;;10.32;2.80;;;16.80;67.80;;;;;;6159413;23;20017;-80
2022/01/04 08:07:37;;;;;;;12.85;2.13;;;16.80;67.70;;;;;;6133969;23;20043;-81
2022/01/04 08:10:04;;;;;;;10.43;2.40;;;16.80;67.70;;;;;;6133726;23;20412;-78
2022/01/04 08:12:30;;;;;;;12.85;2.47;;;16.80;67.70;;;;;;6159468;23;20066;-81
2022/01/04 08:14:56;;;;;;;14.07;2.70;;;16.90;67.60;;;;;;6133167;23;20009;-76
2022/01/04 08:17:22;;;;;;;13.85;2.25;;;16.90;67.60;;;;;;6159201;23;20024;-77
2022/01/04 08:19:50;;;;;;;13.00;2.65;;;16.90;67.50;;;;;;6157922;23;20032;-78
2022/01/04 08:22:16;;;;;;;9.15;2.33;;;16.90;67.50;;;;;;6157849;23;20033;-75
2022/01/04 08:24:42;;;;;;;7.55;1.65;;;16.90;67.50;;;;;;6158726;23;20311;-78
2022/01/04 08:27:08;;;;;;;8.32;1.80;;;17.00;67.60;;;;;;6158400;23;20021;-80
2022/01/04 08:29:33;;;;;;;12.85;1.92;;;17.00;67.70;;;;;;6158293;23;20352;-79
2022/01/04 08:31:59;;;;;;;12.63;2.28;;;17.00;67.70;;;;;;6158983;23;20016;-80
2022/01/04 08:34:41;;;;;;;9.90;1.88;;;17.00;67.60;;;;;;6159816;23;20028;-81
2022/01/04 08:37:06;;;;;;;8.45;2.20;;;17.00;67.60;;;;;;6133097;23;20024;-80
2022/01/04 08:39:33;;;;;;;9.57;1.63;;;17.00;67.70;;;;;;6158862;23;20088;-80
2022/01/04 08:42:01;;;;;;;9.75;1.73;;;17.00;67.90;;;;;;6157616;23;20056;-80
2022/01/04 08:44:29;;;;;;;6.38;1.70;;;17.00;68.00;;;;;;6158637;23;20327;-79
2022/01/04 08:46:55;;;;;;;7.72;1.67;;;17.00;68.00;;;;;;6158797;23;20053;-79
2022/01/04 08:49:20;;;;;;;5.55;1.40;;;17.00;68.10;;;;;;6157195;23;20435;-79
2022/01/04 08:51:46;;;;;;;12.20;1.58;;;17.00;68.20;;;;;;6157545;23;20045;-81
2022/01/04 08:54:14;;;;;;;11.65;1.95;;;17.00;68.30;;;;;;6159012;23;20069;-73
2022/01/04 08:56:40;;;;;;;9.07;1.70;;;16.50;66.60;;;;;;6159053;23;20101;-78
2022/01/04 08:59:08;;;;;;;6.80;1.90;;;16.00;68.50;;;;;;6158684;23;20100;-79
2022/01/04 09:01:34;;;;;;;7.93;1.70;;;15.60;70.10;;;;;;6159770;23;20344;-78
2022/01/04 09:04:01;;;;;;;5.88;1.35;;;15.40;71.20;;;;;;6158801;23;20303;-78
2022/01/04 09:06:27;;;;;;;6.25;1.48;;;15.30;72.10;;;;;;6158986;23;20402;-79
2022/01/04 09:08:55;;;;;;;7.15;1.55;;;15.10;72.70;;;;;;6158891;23;20021;-78
2022/01/04 09:11:22;;;;;;;6.88;1.58;;;15.10;73.20;;;;;;6157406;23;20013;-77
2022/01/04 09:13:49;;;;;;;9.63;1.42;;;15.00;73.50;;;;;;6158583;23;20025;-77
2022/01/04 09:18:48;;;;;;;9.95;1.52;;;15.20;73.90;;;;;;6158628;23;20029;-77
2022/01/04 09:21:20;;;;;;;5.10;1.30;;;15.60;73.10;;;;;;6157694;23;20028;-79
2022/01/04 09:23:50;;;;;;;7.88;1.30;;;15.80;72.10;;;;;;6158676;23;20017;-81
2022/01/04 09:26:17;;;;;;;7.47;1.42;;;16.10;71.50;;;;;;6157153;23;20511;-81
2022/01/04 09:28:46;;;;;;;4.82;0.77;;;16.30;70.70;;;;;;6158977;23;20033;-80
2022/01/04 09:31:13;;;;;;;6.57;0.90;;;16.40;70.20;;;;;;6157132;23;20088;-77
2022/01/04 09:33:42;;;;;;;6.03;1.40;;;16.50;70.80;;;;;;6158379;23;20028;-81
2022/01/04 09:36:09;;;;;;;4.80;1.13;;;16.60;70.20;;;;;;6157131;23;20411;-78
2022/01/04 09:38:34;;;;;;;8.05;1.45;;;16.70;70.30;;;;;;6133843;23;20013;-81
2022/01/04 09:41:00;;;;;;;7.38;1.33;;;16.80;70.50;;;;;;6158281;23;20375;-76
2022/01/04 09:43:26;;;;;;;5.05;1.50;;;16.80;71.10;;;;;;6157837;23;20013;-78
2022/01/04 09:45:53;;;;;;;5.25;1.10;;;16.90;71.00;;;;;;6157471;23;20052;-77
2022/01/04 09:48:20;;;;;;;6.47;1.50;;;16.90;70.70;;;;;;6156901;23;20015;-75
2022/01/04 09:50:47;;;;;;;6.20;1.23;;;17.00;71.90;;;;;;6158486;23;20025;-77
2022/01/04 09:53:21;;;;;;;4.90;1.42;;;17.00;74.00;;;;;;6156919;23;20086;-73
2022/01/04 09:55:54;;;;;;;4.97;1.17;;;17.00;75.80;;;;;;6159291;23;20293;-75
2022/01/04 09:58:23;;;;;;;4.30;1.43;;;17.00;75.20;;;;;;6158549;23;20018;-72
2022/01/04 10:00:53;;;;;;;3.75;0.73;;;17.10;74.60;;;;;;6158393;23;20072;-73
2022/01/04 10:03:29;;;;;;;12.88;1.73;;;17.10;72.90;;;;;;6157772;23;20017;-75
2022/01/04 10:06:15;;;;;;;6.82;1.85;;;17.00;69.00;;;;;;6156694;23;20029;-75
2022/01/04 10:12:25;;;;;;;11.63;2.35;;;16.80;71.20;;;;;;6087154;23;20328;-74
2022/01/04 10:14:52;;;;;;;12.38;3.00;;;16.90;71.90;;;;;;6095848;23;20093;-77
2022/01/04 10:17:29;;;;;;;13.82;2.97;;;16.90;72.10;;;;;;6126793;23;20013;-74
2022/01/04 10:20:04;;;;;;;11.93;3.05;;;16.90;72.60;;;;;;6134399;23;20027;-76
2022/01/04 10:22:37;;;;;;;15.15;4.00;;;17.00;72.40;;;;;;6156601;23;20054;-75
2022/01/04 10:25:02;;;;;;;14.02;2.42;;;17.00;73.60;;;;;;6158426;23;20024;-76
2022/01/04 10:27:28;;;;;;;13.90;2.15;;;17.00;74.60;;;;;;6156559;23;20049;-75
2022/01/04 10:30:21;;;;;;;10.32;2.60;;;17.00;73.40;;;;;;6131860;23;20079;-76
2022/01/04 10:32:59;;;;;;;11.75;2.67;;;17.10;72.80;;;;;;6132458;23;20359;-74
2022/01/04 10:35:36;;;;;;;6.78;2.10;;;17.10;72.60;;;;;;6131730;23;20055;-74
2022/01/04 10:38:11;;;;;;;14.27;2.88;;;17.00;71.80;;;;;;6158190;23;20438;-77
2022/01/04 10:40:39;;;;;;;8.23;1.48;;;17.00;71.00;;;;;;6156573;23;20021;-78
2022/01/04 10:43:19;;;;;;;11.15;1.70;;;16.90;71.20;;;;;;6157258;23;20025;-79
2022/01/04 10:45:46;;;;;;;12.00;1.98;;;16.90;70.90;;;;;;6131275;23;20068;-76
2022/01/04 10:48:13;;;;;;;6.93;1.27;;;16.80;71.30;;;;;;6132029;23;20017;-76
2022/01/04 10:50:40;;;;;;;6.93;1.38;;;16.80;71.50;;;;;;6132670;23;20088;-76
2022/01/04 10:53:14;;;;;;;7.47;1.38;;;16.80;71.70;;;;;;6157364;23;20458;-77
2022/01/04 10:55:40;;;;;;;10.70;1.50;;;16.70;70.60;;;;;;6156465;23;20092;-76
2022/01/04 10:58:06;;;;;;;3.92;0.85;;;16.70;67.10;;;;;;6157261;23;20060;-74
2022/01/04 11:00:31;;;;;;;6.10;1.08;;;15.90;59.10;;;;;;6156349;23;20022;-78
2022/01/04 11:03:00;;;;;;;6.28;1.05;;;15.40;62.50;;;;;;6131968;23;20032;-76
2022/01/04 11:05:26;;;;;;;6.80;1.10;;;15.10;62.20;;;;;;6156370;23;20045;-76
2022/01/04 11:07:59;;;;;;;8.35;1.30;;;15.10;68.70;;;;;;6131796;23;20014;-76
2022/01/04 11:10:27;;;;;;;9.95;1.25;;;15.30;71.70;;;;;;6156409;23;20080;-76
2022/01/04 11:12:55;;;;;;;13.55;1.20;;;15.50;71.00;;;;;;6156523;23;20088;-76
2022/01/04 11:15:20;;;;;;;8.55;1.40;;;15.70;71.80;;;;;;6131905;23;20025;-78
2022/01/04 11:17:50;;;;;;;6.75;0.98;;;15.80;71.10;;;;;;6156213;23;20021;-76
2022/01/04 11:20:18;;;;;;;7.60;0.85;;;15.90;69.50;;;;;;6157716;23;20036;-76
2022/01/04 11:22:46;;;;;;;6.85;1.10;;;15.90;68.20;;;;;;6131766;23;20089;-75
2022/01/04 11:25:15;;;;;;;9.88;1.23;;;16.00;67.40;;;;;;6157451;23;20017;-74
2022/01/04 11:27:42;;;;;;;7.55;1.17;;;16.00;67.10;;;;;;6157463;23;20156;-74
2022/01/04 11:30:25;;;;;;;6.15;1.05;;;16.10;67.10;;;;;;6156386;23;20016;-75
2022/01/04 11:32:59;;;;;;;11.27;1.02;;;16.10;67.20;;;;;;6157518;23;20076;-74
2022/01/04 11:35:26;;;;;;;10.95;1.35;;;16.20;67.40;;;;;;6158062;23;20022;-76
2022/01/04 11:37:57;;;;;;;8.02;1.05;;;16.20;67.40;;;;;;6157857;23;20105;-75
2022/01/04 11:40:25;;;;;;;10.40;1.30;;;16.20;67.10;;;;;;6157273;23;20025;-76
2022/01/04 11:42:52;;;;;;;7.18;0.98;;;16.20;67.00;;;;;;6156183;23;20018;-75
2022/01/04 11:45:48;;;;;;;3.85;0.75;;;16.20;66.90;;;;;;6158138;23;20036;-76
2022/01/04 11:48:27;;;;;;;9.40;1.00;;;16.10;66.70;;;;;;6156275;23;20018;-75
2022/01/04 11:50:55;;;;;;;9.50;1.08;;;16.20;66.70;;;;;;6156193;23;20479;-74
2022/01/04 11:53:21;;;;;;;5.25;0.70;;;16.10;66.70;;;;;;6158670;23;20017;-74
2022/01/04 11:55:56;;;;;;;8.82;1.05;;;16.10;66.70;;;;;;6159982;23;20017;-75
2022/01/04 11:58:40;;;;;;;6.93;0.70;;;16.10;66.60;;;;;;6159782;23;20025;-76
2022/01/04 12:01:06;;;;;;;4.05;0.73;;;16.10;66.70;;;;;;6156919;23;20088;-76
2022/01/04 12:03:44;;;;;;;7.93;0.88;;;16.10;66.80;;;;;;6158940;23;20060;-75
2022/01/04 12:06:12;;;;;;;7.13;0.90;;;16.10;66.80;;;;;;6159687;23;20079;-75
2022/01/04 12:08:41;;;;;;;3.67;0.98;;;16.10;66.80;;;;;;6159453;23;20092;-75
2022/01/04 12:11:26;;;;;;;4.00;0.60;;;16.10;66.80;;;;;;6160115;23;20025;-75
2022/01/04 12:13:56;;;;;;;6.63;0.73;;;16.00;66.70;;;;;;6159770;23;20315;-76
2022/01/04 12:16:34;;;;;;;7.40;0.98;;;16.00;66.80;;;;;;6159426;23;20075;-76
2022/01/04 12:19:06;;;;;;;4.90;0.57;;;16.00;66.80;;;;;;6158149;23;20056;-76
2022/01/04 12:21:34;;;;;;;5.72;0.90;;;16.00;66.80;;;;;;6159339;23;20029;-74
2022/01/04 12:24:01;;;;;;;4.22;0.70;;;16.00;66.70;;;;;;6133318;23;20092;-75
2022/01/04 12:26:32;;;;;;;3.72;0.63;;;16.00;66.80;;;;;;6159980;23;20028;-75
2022/01/04 12:28:58;;;;;;;5.85;0.68;;;16.00;66.70;;;;;;6159357;23;20025;-75
2022/01/04 12:31:29;;;;;;;3.63;0.30;;;16.00;66.70;;;;;;6159172;23;20072;-75
2022/01/04 12:34:00;;;;;;;4.55;0.60;;;16.00;66.70;;;;;;6159286;23;20068;-75
2022/01/04 12:36:26;;;;;;;5.18;0.82;;;16.00;66.80;;;;;;6158377;23;20079;-75
2022/01/04 12:38:53;;;;;;;3.90;0.60;;;16.00;66.70;;;;;;6158799;23;20382;-76
2022/01/04 12:41:19;;;;;;;3.00;0.40;;;15.90;66.70;;;;;;6158845;23;20411;-74
2022/01/04 12:43:47;;;;;;;5.85;0.80;;;15.90;66.70;;;;;;6157512;23;20080;-75
2022/01/04 12:46:14;;;;;;;4.90;0.50;;;15.90;66.70;;;;;;6158227;23;20018;-75
2022/01/04 12:48:48;;;;;;;3.90;0.75;;;15.90;66.70;;;;;;6157791;23;20029;-74
2022/01/04 12:51:25;;;;;;;5.20;0.55;;;15.90;66.70;;;;;;6159611;23;20067;-75
2022/01/04 12:53:52;;;;;;;2.42;0.40;;;15.90;66.60;;;;;;6157574;23;20017;-76
2022/01/04 12:56:18;;;;;;;3.03;0.60;;;15.90;66.60;;;;;;6157975;23;20037;-75